sensor_id;sensor_type;location;lat;lon;timestamp;temperature;humidity
28863;DHT22;15994;51.796;13.006;2022-12-08T00:01:12;2.70;99.90
28863;DHT22;15994;51.796;13.006;2022-12-08T00:03:39;2.60;99.90
28863;DHT22;15994;51.796;13.006;2022-12-08T00:06:07;2.70;99.90
28863;DHT22;15994;51.796;13.006;2022-12-08T00:08:54;2.60;99.90
28863;DHT22;15994;51.796;13.006;2022-12-08T00:11:39;2.60;99.90
28863;DHT22;15994;51.796;13.006;2022-12-08T00:14:05;2.70;99.90
28863;DHT22;15994;51.796;13.006;2022-12-08T00:16:32;2.80;99.90
28863;DHT22;15994;51.796;13.006;2022-12-08T00:18:58;2.70;99.90
28863;DHT22;15994;51.796;13.006;2022-12-08T00:21:25;2.70;99.90
28863;DHT22;15994;51.796;13.006;2022-12-08T00:23:54;2.80;99.90
28863;DHT22;15994;51.796;13.006;2022-12-08T00:26:21;2.60;99.90
28863;DHT22;15994;51.796;13.006;2022-12-08T00:28:48;2.70;99.90
28863;DHT22;15994;51.796;13.006;2022-12-08T00:31:14;2.80;99.90
28863;DHT22;15994;51.796;13.006;2022-12-08T00:33:41;2.70;99.90
28863;DHT22;15994;51.796;13.006;2022-12-08T00:36:12;2.70;99.90
28863;DHT22;15994;51.796;13.006;2022-12-08T00:38:40;2.50;99.90
28863;DHT22;15994;51.796;13.006;2022-12-08T00:41:18;2.60;99.90
28863;DHT22;15994;51.796;13.006;2022-12-08T00:44:06;2.50;99.90
28863;DHT22;15994;51.796;13.006;2022-12-08T00:46:33;2.70;99.90
28863;DHT22;15994;51.796;13.006;2022-12-08T00:49:00;2.50;99.90
28863;DHT22;15994;51.796;13.006;2022-12-08T00:51:26;2.70;99.90
28863;DHT22;15994;51.796;13.006;2022-12-08T00:53:53;2.90;99.90
28863;DHT22;15994;51.796;13.006;2022-12-08T00:56:19;3.00;99.90
28863;DHT22;15994;51.796;13.006;2022-12-08T00:58:46;3.00;99.90
28863;DHT22;15994;51.796;13.006;2022-12-08T01:01:13;3.10;99.90
28863;DHT22;15994;51.796;13.006;2022-12-08T01:03:41;3.10;99.90
28863;DHT22;15994;51.796;13.006;2022-12-08T01:06:08;3.20;99.90
28863;DHT22;15994;51.796;13.006;2022-12-08T01:08:41;3.20;99.90
28863;DHT22;15994;51.796;13.006;2022-12-08T01:11:18;3.30;99.90
28863;DHT22;15994;51.796;13.006;2022-12-08T01:13:45;3.30;99.90
28863;DHT22;15994;51.796;13.006;2022-12-08T01:16:24;3.10;99.90
28863;DHT22;15994;51.796;13.006;2022-12-08T01:18:51;3.10;99.90
28863;DHT22;15994;51.796;13.006;2022-12-08T01:21:18;3.10;99.90
28863;DHT22;15994;51.796;13.006;2022-12-08T01:23:45;3.10;99.90
28863;DHT22;15994;51.796;13.006;2022-12-08T01:26:13;3.20;99.90
28863;DHT22;15994;51.796;13.006;2022-12-08T01:28:40;3.20;99.90
28863;DHT22;15994;51.796;13.006;2022-12-08T01:31:15;3.30;99.90
28863;DHT22;15994;51.796;13.006;2022-12-08T01:33:43;3.30;99.90
28863;DHT22;15994;51.796;13.006;2022-12-08T01:36:28;3.20;99.90
28863;DHT22;15994;51.796;13.006;2022-12-08T01:38:57;3.30;99.90
28863;DHT22;15994;51.796;13.006;2022-12-08T01:41:27;3.30;99.90
28863;DHT22;15994;51.796;13.006;2022-12-08T01:46:51;3.40;99.90
28863;DHT22;15994;51.796;13.006;2022-12-08T01:54:46;3.40;99.90
28863;DHT22;15994;51.796;13.006;2022-12-08T01:59:51;3.40;99.90
28863;DHT22;15994;51.796;13.006;2022-12-08T02:02:19;3.40;99.90
28863;DHT22;15994;51.796;13.006;2022-12-08T02:04:46;3.40;99.90
28863;DHT22;15994;51.796;13.006;2022-12-08T02:07:13;3.40;99.90
28863;DHT22;15994;51.796;13.006;2022-12-08T02:09:41;3.50;99.90
28863;DHT22;15994;51.796;13.006;2022-12-08T02:12:08;3.40;99.90
28863;DHT22;15994;51.796;13.006;2022-12-08T02:14:35;3.50;99.90
28863;DHT22;15994;51.796;13.006;2022-12-08T02:19:55;3.40;99.90
28863;DHT22;15994;51.796;13.006;2022-12-08T02:22:38;3.40;99.90
28863;DHT22;15994;51.796;13.006;2022-12-08T02:25:14;3.40;99.90
28863;DHT22;15994;51.796;13.006;2022-12-08T02:33:53;3.50;99.90
28863;DHT22;15994;51.796;13.006;2022-12-08T02:36:34;3.50;99.90
28863;DHT22;15994;51.796;13.006;2022-12-08T02:41:58;3.60;99.90
28863;DHT22;15994;51.796;13.006;2022-12-08T02:47:08;3.60;99.90
28863;DHT22;15994;51.796;13.006;2022-12-08T02:49:36;3.60;99.90
28863;DHT22;15994;51.796;13.006;2022-12-08T02:54:56;3.50;99.90
28863;DHT22;15994;51.796;13.006;2022-12-08T02:57:47;3.50;99.90
28863;DHT22;15994;51.796;13.006;2022-12-08T03:00:19;3.40;99.90
28863;DHT22;15994;51.796;13.006;2022-12-08T03:02:57;3.40;99.90
28863;DHT22;15994;51.796;13.006;2022-12-08T03:11:31;3.50;99.90
28863;DHT22;15994;51.796;13.006;2022-12-08T03:13:42;3.40;99.90
28863;DHT22;15994;51.796;13.006;2022-12-08T03:16:12;3.40;99.90
28863;DHT22;15994;51.796;13.006;2022-12-08T03:18:44;3.40;99.90
28863;DHT22;15994;51.796;13.006;2022-12-08T03:21:14;3.40;99.90
28863;DHT22;15994;51.796;13.006;2022-12-08T03:23:43;3.40;99.90
28863;DHT22;15994;51.796;13.006;2022-12-08T03:26:17;3.40;99.90
28863;DHT22;15994;51.796;13.006;2022-12-08T03:28:44;3.50;99.90
28863;DHT22;15994;51.796;13.006;2022-12-08T03:31:12;3.40;99.90
28863;DHT22;15994;51.796;13.006;2022-12-08T03:33:42;3.40;99.90
28863;DHT22;15994;51.796;13.006;2022-12-08T03:36:10;3.40;99.90
28863;DHT22;15994;51.796;13.006;2022-12-08T03:38:41;3.50;99.90
28863;DHT22;15994;51.796;13.006;2022-12-08T03:41:08;3.40;99.90
28863;DHT22;15994;51.796;13.006;2022-12-08T03:46:17;3.40;99.90
28863;DHT22;15994;51.796;13.006;2022-12-08T03:48:45;3.40;99.90
28863;DHT22;15994;51.796;13.006;2022-12-08T03:51:12;3.40;99.90
28863;DHT22;15994;51.796;13.006;2022-12-08T03:53:39;3.50;99.90
28863;DHT22;15994;51.796;13.006;2022-12-08T03:56:26;3.50;99.90
28863;DHT22;15994;51.796;13.006;2022-12-08T03:58:54;3.50;99.90
28863;DHT22;15994;51.796;13.006;2022-12-08T04:01:21;3.50;99.90
28863;DHT22;15994;51.796;13.006;2022-12-08T04:03:48;3.50;99.90
28863;DHT22;15994;51.796;13.006;2022-12-08T04:06:15;3.50;99.90
28863;DHT22;15994;51.796;13.006;2022-12-08T04:09:03;3.50;99.90
28863;DHT22;15994;51.796;13.006;2022-12-08T04:11:29;3.50;99.90
28863;DHT22;15994;51.796;13.006;2022-12-08T04:13:56;3.50;99.90
28863;DHT22;15994;51.796;13.006;2022-12-08T04:16:23;3.50;99.90
28863;DHT22;15994;51.796;13.006;2022-12-08T04:18:51;3.50;99.90
28863;DHT22;15994;51.796;13.006;2022-12-08T04:21:17;3.50;99.90
28863;DHT22;15994;51.796;13.006;2022-12-08T04:23:44;3.40;99.90
28863;DHT22;15994;51.796;13.006;2022-12-08T04:26:12;3.50;99.90
28863;DHT22;15994;51.796;13.006;2022-12-08T04:28:39;3.50;99.90
28863;DHT22;15994;51.796;13.006;2022-12-08T04:31:05;3.50;99.90
28863;DHT22;15994;51.796;13.006;2022-12-08T04:33:32;3.60;99.90
28863;DHT22;15994;51.796;13.006;2022-12-08T04:35:59;3.60;99.90
28863;DHT22;15994;51.796;13.006;2022-12-08T04:38:27;3.70;99.90
28863;DHT22;15994;51.796;13.006;2022-12-08T04:40:54;3.60;99.90
28863;DHT22;15994;51.796;13.006;2022-12-08T04:43:20;3.60;99.90
28863;DHT22;15994;51.796;13.006;2022-12-08T04:45:47;3.60;99.90
28863;DHT22;15994;51.796;13.006;2022-12-08T04:48:14;3.60;99.90
28863;DHT22;15994;51.796;13.006;2022-12-08T04:50:42;3.60;99.90
28863;DHT22;15994;51.796;13.006;2022-12-08T04:53:10;3.60;99.90
28863;DHT22;15994;51.796;13.006;2022-12-08T04:55:38;3.60;99.90
28863;DHT22;15994;51.796;13.006;2022-12-08T04:58:05;3.50;99.90
28863;DHT22;15994;51.796;13.006;2022-12-08T05:00:32;3.50;99.90
28863;DHT22;15994;51.796;13.006;2022-12-08T05:02:59;3.40;99.90
28863;DHT22;15994;51.796;13.006;2022-12-08T05:05:25;3.40;99.90
28863;DHT22;15994;51.796;13.006;2022-12-08T05:07:52;3.40;99.90
28863;DHT22;15994;51.796;13.006;2022-12-08T05:10:18;3.30;99.90
28863;DHT22;15994;51.796;13.006;2022-12-08T05:12:45;3.30;99.90
28863;DHT22;15994;51.796;13.006;2022-12-08T05:15:11;3.30;99.90
28863;DHT22;15994;51.796;13.006;2022-12-08T05:17:38;3.20;99.90
28863;DHT22;15994;51.796;13.006;2022-12-08T05:20:05;3.20;99.90
28863;DHT22;15994;51.796;13.006;2022-12-08T05:22:32;3.20;99.90
28863;DHT22;15994;51.796;13.006;2022-12-08T05:24:59;3.20;99.90
28863;DHT22;15994;51.796;13.006;2022-12-08T05:27:26;3.20;99.90
28863;DHT22;15994;51.796;13.006;2022-12-08T05:29:54;3.20;99.90
28863;DHT22;15994;51.796;13.006;2022-12-08T05:32:20;3.30;99.90
28863;DHT22;15994;51.796;13.006;2022-12-08T05:34:54;3.30;99.90
28863;DHT22;15994;51.796;13.006;2022-12-08T05:37:20;3.30;99.90
28863;DHT22;15994;51.796;13.006;2022-12-08T05:39:47;3.30;99.90
28863;DHT22;15994;51.796;13.006;2022-12-08T05:42:13;3.20;99.90
28863;DHT22;15994;51.796;13.006;2022-12-08T05:44:40;3.20;99.90
28863;DHT22;15994;51.796;13.006;2022-12-08T05:47:07;3.20;99.90
28863;DHT22;15994;51.796;13.006;2022-12-08T05:49:33;3.10;99.90
28863;DHT22;15994;51.796;13.006;2022-12-08T05:52:00;3.20;99.90
28863;DHT22;15994;51.796;13.006;2022-12-08T05:54:26;3.20;99.90
28863;DHT22;15994;51.796;13.006;2022-12-08T05:56:53;3.30;99.90
28863;DHT22;15994;51.796;13.006;2022-12-08T05:59:19;3.30;99.90
28863;DHT22;15994;51.796;13.006;2022-12-08T06:01:46;3.30;99.90
28863;DHT22;15994;51.796;13.006;2022-12-08T06:04:13;3.30;99.90
28863;DHT22;15994;51.796;13.006;2022-12-08T06:06:39;3.30;99.90
28863;DHT22;15994;51.796;13.006;2022-12-08T06:09:06;3.30;99.90
28863;DHT22;15994;51.796;13.006;2022-12-08T06:11:33;3.20;99.90
28863;DHT22;15994;51.796;13.006;2022-12-08T06:14:00;3.20;99.90
28863;DHT22;15994;51.796;13.006;2022-12-08T06:16:28;3.20;99.90
28863;DHT22;15994;51.796;13.006;2022-12-08T06:18:55;3.20;99.90
28863;DHT22;15994;51.796;13.006;2022-12-08T06:21:22;3.30;99.90
28863;DHT22;15994;51.796;13.006;2022-12-08T06:23:56;3.30;99.90
28863;DHT22;15994;51.796;13.006;2022-12-08T06:26:23;3.40;99.90
28863;DHT22;15994;51.796;13.006;2022-12-08T06:33:46;3.40;99.90
28863;DHT22;15994;51.796;13.006;2022-12-08T06:36:15;3.40;99.90
28863;DHT22;15994;51.796;13.006;2022-12-08T06:38:42;3.40;99.90
28863;DHT22;15994;51.796;13.006;2022-12-08T06:41:09;3.30;99.90
28863;DHT22;15994;51.796;13.006;2022-12-08T06:43:36;3.30;99.90
28863;DHT22;15994;51.796;13.006;2022-12-08T06:46:05;3.30;99.90
28863;DHT22;15994;51.796;13.006;2022-12-08T06:48:32;3.20;99.90
28863;DHT22;15994;51.796;13.006;2022-12-08T06:51:06;3.20;99.90
28863;DHT22;15994;51.796;13.006;2022-12-08T06:53:33;3.20;99.90
28863;DHT22;15994;51.796;13.006;2022-12-08T06:55:59;3.10;99.90
28863;DHT22;15994;51.796;13.006;2022-12-08T06:58:26;3.20;99.90
28863;DHT22;15994;51.796;13.006;2022-12-08T07:00:53;3.10;99.90
28863;DHT22;15994;51.796;13.006;2022-12-08T07:03:20;3.10;99.90
28863;DHT22;15994;51.796;13.006;2022-12-08T07:05:46;3.10;99.90
28863;DHT22;15994;51.796;13.006;2022-12-08T07:08:13;3.10;99.90
28863;DHT22;15994;51.796;13.006;2022-12-08T07:10:39;3.10;99.90
28863;DHT22;15994;51.796;13.006;2022-12-08T07:13:06;3.10;99.90
28863;DHT22;15994;51.796;13.006;2022-12-08T07:15:33;3.10;99.90
28863;DHT22;15994;51.796;13.006;2022-12-08T07:17:59;3.10;99.90
28863;DHT22;15994;51.796;13.006;2022-12-08T07:20:26;3.10;99.90
28863;DHT22;15994;51.796;13.006;2022-12-08T07:22:53;3.10;99.90
28863;DHT22;15994;51.796;13.006;2022-12-08T07:25:20;3.10;99.90
28863;DHT22;15994;51.796;13.006;2022-12-08T07:27:46;3.10;99.90
28863;DHT22;15994;51.796;13.006;2022-12-08T07:30:15;3.00;99.90
28863;DHT22;15994;51.796;13.006;2022-12-08T07:32:42;3.10;99.90
28863;DHT22;15994;51.796;13.006;2022-12-08T07:35:09;3.10;99.90
28863;DHT22;15994;51.796;13.006;2022-12-08T07:37:37;3.10;99.90
28863;DHT22;15994;51.796;13.006;2022-12-08T07:40:05;3.10;99.90
28863;DHT22;15994;51.796;13.006;2022-12-08T07:42:32;3.20;99.90
28863;DHT22;15994;51.796;13.006;2022-12-08T07:44:59;3.30;99.90
28863;DHT22;15994;51.796;13.006;2022-12-08T07:47:26;3.30;99.90
28863;DHT22;15994;51.796;13.006;2022-12-08T07:49:53;3.20;99.90
28863;DHT22;15994;51.796;13.006;2022-12-08T07:52:19;3.20;99.90
28863;DHT22;15994;51.796;13.006;2022-12-08T07:54:46;3.20;99.90
28863;DHT22;15994;51.796;13.006;2022-12-08T07:57:13;3.20;99.90
28863;DHT22;15994;51.796;13.006;2022-12-08T07:59:39;3.20;99.90
28863;DHT22;15994;51.796;13.006;2022-12-08T08:02:14;3.20;99.90
28863;DHT22;15994;51.796;13.006;2022-12-08T08:04:41;3.20;99.90
28863;DHT22;15994;51.796;13.006;2022-12-08T08:07:07;3.20;99.90
28863;DHT22;15994;51.796;13.006;2022-12-08T08:09:34;3.20;99.90
28863;DHT22;15994;51.796;13.006;2022-12-08T08:12:01;3.20;99.90
28863;DHT22;15994;51.796;13.006;2022-12-08T08:14:27;3.20;99.90
28863;DHT22;15994;51.796;13.006;2022-12-08T08:16:54;3.30;99.90
28863;DHT22;15994;51.796;13.006;2022-12-08T08:19:20;3.30;99.90
28863;DHT22;15994;51.796;13.006;2022-12-08T08:21:47;3.30;99.90
28863;DHT22;15994;51.796;13.006;2022-12-08T08:24:14;3.40;99.90
28863;DHT22;15994;51.796;13.006;2022-12-08T08:26:40;3.50;99.90
28863;DHT22;15994;51.796;13.006;2022-12-08T08:29:07;3.60;99.90
28863;DHT22;15994;51.796;13.006;2022-12-08T08:31:33;3.70;99.90
28863;DHT22;15994;51.796;13.006;2022-12-08T08:34:00;3.80;99.90
28863;DHT22;15994;51.796;13.006;2022-12-08T08:36:30;3.80;99.90
28863;DHT22;15994;51.796;13.006;2022-12-08T08:38:57;3.90;99.90
28863;DHT22;15994;51.796;13.006;2022-12-08T08:41:24;3.90;99.90
28863;DHT22;15994;51.796;13.006;2022-12-08T08:43:50;3.90;99.90
28863;DHT22;15994;51.796;13.006;2022-12-08T08:46:17;4.00;99.90
28863;DHT22;15994;51.796;13.006;2022-12-08T08:48:43;4.10;99.90
28863;DHT22;15994;51.796;13.006;2022-12-08T08:51:12;4.00;99.90
28863;DHT22;15994;51.796;13.006;2022-12-08T08:53:40;4.10;99.90
28863;DHT22;15994;51.796;13.006;2022-12-08T08:56:11;4.20;99.90
28863;DHT22;15994;51.796;13.006;2022-12-08T08:58:39;4.20;99.90
28863;DHT22;15994;51.796;13.006;2022-12-08T09:01:05;4.20;99.90
28863;DHT22;15994;51.796;13.006;2022-12-08T09:03:32;4.10;99.90
28863;DHT22;15994;51.796;13.006;2022-12-08T09:05:59;4.10;99.90
28863;DHT22;15994;51.796;13.006;2022-12-08T09:08:25;4.10;99.90
28863;DHT22;15994;51.796;13.006;2022-12-08T09:10:52;4.10;99.90
28863;DHT22;15994;51.796;13.006;2022-12-08T09:13:19;4.20;99.90
28863;DHT22;15994;51.796;13.006;2022-12-08T09:15:46;4.30;99.90
28863;DHT22;15994;51.796;13.006;2022-12-08T09:18:13;4.40;99.90
28863;DHT22;15994;51.796;13.006;2022-12-08T09:20:39;4.60;99.90
28863;DHT22;15994;51.796;13.006;2022-12-08T09:23:06;4.70;99.90
28863;DHT22;15994;51.796;13.006;2022-12-08T09:25:34;4.80;99.90
28863;DHT22;15994;51.796;13.006;2022-12-08T09:28:00;4.70;99.90
28863;DHT22;15994;51.796;13.006;2022-12-08T09:30:27;4.70;99.90
28863;DHT22;15994;51.796;13.006;2022-12-08T09:32:53;4.70;99.90
28863;DHT22;15994;51.796;13.006;2022-12-08T09:35:20;4.70;99.90
28863;DHT22;15994;51.796;13.006;2022-12-08T09:37:47;4.70;99.90
28863;DHT22;15994;51.796;13.006;2022-12-08T09:40:18;4.70;99.90
28863;DHT22;15994;51.796;13.006;2022-12-08T09:42:50;4.70;99.90
28863;DHT22;15994;51.796;13.006;2022-12-08T09:45:18;4.80;99.90
28863;DHT22;15994;51.796;13.006;2022-12-08T09:48:04;4.70;99.90
28863;DHT22;15994;51.796;13.006;2022-12-08T09:50:42;4.80;99.90
28863;DHT22;15994;51.796;13.006;2022-12-08T09:55:48;4.80;99.90
28863;DHT22;15994;51.796;13.006;2022-12-08T09:58:28;4.90;99.90
28863;DHT22;15994;51.796;13.006;2022-12-08T10:00:57;4.90;99.90
28863;DHT22;15994;51.796;13.006;2022-12-08T10:03:26;5.00;99.90
28863;DHT22;15994;51.796;13.006;2022-12-08T10:06:11;5.10;99.90
28863;DHT22;15994;51.796;13.006;2022-12-08T10:09:02;5.10;99.90
28863;DHT22;15994;51.796;13.006;2022-12-08T10:14:45;5.20;99.90
28863;DHT22;15994;51.796;13.006;2022-12-08T10:17:21;5.30;99.90
28863;DHT22;15994;51.796;13.006;2022-12-08T10:19:56;5.30;99.90
28863;DHT22;15994;51.796;13.006;2022-12-08T10:22:30;5.30;99.90
28863;DHT22;15994;51.796;13.006;2022-12-08T10:25:08;5.30;99.90
28863;DHT22;15994;51.796;13.006;2022-12-08T10:27:37;5.30;99.90
28863;DHT22;15994;51.796;13.006;2022-12-08T10:30:16;5.30;99.90
28863;DHT22;15994;51.796;13.006;2022-12-08T10:32:45;5.40;99.90
28863;DHT22;15994;51.796;13.006;2022-12-08T10:35:15;5.50;99.90
28863;DHT22;15994;51.796;13.006;2022-12-08T10:37:54;5.40;99.90
28863;DHT22;15994;51.796;13.006;2022-12-08T10:40:23;5.50;99.90
28863;DHT22;15994;51.796;13.006;2022-12-08T10:42:55;5.50;99.90
28863;DHT22;15994;51.796;13.006;2022-12-08T10:45:31;5.50;99.90
28863;DHT22;15994;51.796;13.006;2022-12-08T10:48:02;5.60;99.90
28863;DHT22;15994;51.796;13.006;2022-12-08T10:53:00;5.60;99.90
28863;DHT22;15994;51.796;13.006;2022-12-08T10:55:28;5.60;99.90
28863;DHT22;15994;51.796;13.006;2022-12-08T10:58:04;5.70;99.90
28863;DHT22;15994;51.796;13.006;2022-12-08T11:00:30;5.70;99.90
28863;DHT22;15994;51.796;13.006;2022-12-08T11:03:03;5.70;99.90
28863;DHT22;15994;51.796;13.006;2022-12-08T11:05:34;5.80;99.90
28863;DHT22;15994;51.796;13.006;2022-12-08T11:08:03;5.80;99.90
28863;DHT22;15994;51.796;13.006;2022-12-08T11:10:36;5.80;99.90
28863;DHT22;15994;51.796;13.006;2022-12-08T11:13:06;5.80;99.90
28863;DHT22;15994;51.796;13.006;2022-12-08T11:15:38;5.90;99.90
28863;DHT22;15994;51.796;13.006;2022-12-08T11:18:08;5.90;99.90
28863;DHT22;15994;51.796;13.006;2022-12-08T11:20:40;5.90;99.90
28863;DHT22;15994;51.796;13.006;2022-12-08T11:23:19;5.80;99.90
28863;DHT22;15994;51.796;13.006;2022-12-08T11:25:47;5.80;99.90
28863;DHT22;15994;51.796;13.006;2022-12-08T11:28:14;5.70;99.90
28863;DHT22;15994;51.796;13.006;2022-12-08T11:30:45;5.70;99.90
28863;DHT22;15994;51.796;13.006;2022-12-08T11:33:20;5.40;99.90
28863;DHT22;15994;51.796;13.006;2022-12-08T11:35:52;5.40;99.90
28863;DHT22;15994;51.796;13.006;2022-12-08T11:38:21;5.30;99.90
28863;DHT22;15994;51.796;13.006;2022-12-08T11:43:47;5.20;99.90
28863;DHT22;15994;51.796;13.006;2022-12-08T11:46:22;5.30;99.90
28863;DHT22;15994;51.796;13.006;2022-12-08T11:49:02;5.30;99.90
28863;DHT22;15994;51.796;13.006;2022-12-08T11:51:43;5.30;99.90
28863;DHT22;15994;51.796;13.006;2022-12-08T11:57:02;5.30;99.90
28863;DHT22;15994;51.796;13.006;2022-12-08T11:59:44;5.30;99.90
28863;DHT22;15994;51.796;13.006;2022-12-08T12:04:45;5.40;99.90
28863;DHT22;15994;51.796;13.006;2022-12-08T12:07:40;5.40;99.90
28863;DHT22;15994;51.796;13.006;2022-12-08T12:10:27;5.40;99.90
28863;DHT22;15994;51.796;13.006;2022-12-08T12:13:20;5.40;99.90
28863;DHT22;15994;51.796;13.006;2022-12-08T12:16:26;5.40;99.90
28863;DHT22;15994;51.796;13.006;2022-12-08T12:19:02;5.50;99.90
28863;DHT22;15994;51.796;13.006;2022-12-08T12:21:35;5.50;99.90
28863;DHT22;15994;51.796;13.006;2022-12-08T12:24:09;5.50;99.90
28863;DHT22;15994;51.796;13.006;2022-12-08T12:29:46;5.50;99.90
28863;DHT22;15994;51.796;13.006;2022-12-08T12:32:13;5.50;99.90
28863;DHT22;15994;51.796;13.006;2022-12-08T12:34:53;5.50;99.90
28863;DHT22;15994;51.796;13.006;2022-12-08T12:37:34;5.50;99.90
28863;DHT22;15994;51.796;13.006;2022-12-08T12:40:14;5.60;99.90
28863;DHT22;15994;51.796;13.006;2022-12-08T12:45:35;5.50;99.90
28863;DHT22;15994;51.796;13.006;2022-12-08T12:55:54;5.60;99.90
28863;DHT22;15994;51.796;13.006;2022-12-08T13:04:04;5.60;99.90
28863;DHT22;15994;51.796;13.006;2022-12-08T13:06:41;5.60;99.90
28863;DHT22;15994;51.796;13.006;2022-12-08T13:09:30;5.50;99.90
28863;DHT22;15994;51.796;13.006;2022-12-08T13:12:00;5.60;99.90
28863;DHT22;15994;51.796;13.006;2022-12-08T13:14:36;5.60;99.90
28863;DHT22;15994;51.796;13.006;2022-12-08T13:17:10;5.70;99.90
28863;DHT22;15994;51.796;13.006;2022-12-08T13:19:38;5.50;99.90
28863;DHT22;15994;51.796;13.006;2022-12-08T13:30:49;5.60;99.90
28863;DHT22;15994;51.796;13.006;2022-12-08T13:33:28;5.50;99.90
28863;DHT22;15994;51.796;13.006;2022-12-08T13:36:04;5.50;99.90
28863;DHT22;15994;51.796;13.006;2022-12-08T13:38:36;5.50;99.90
28863;DHT22;15994;51.796;13.006;2022-12-08T13:41:10;5.50;99.90
28863;DHT22;15994;51.796;13.006;2022-12-08T13:43:49;5.40;99.90
28863;DHT22;15994;51.796;13.006;2022-12-08T13:46:30;5.50;99.90
28863;DHT22;15994;51.796;13.006;2022-12-08T13:49:00;5.50;99.90
28863;DHT22;15994;51.796;13.006;2022-12-08T13:51:41;5.50;99.90
28863;DHT22;15994;51.796;13.006;2022-12-08T13:54:17;5.50;99.90
28863;DHT22;15994;51.796;13.006;2022-12-08T13:56:47;5.40;99.90
28863;DHT22;15994;51.796;13.006;2022-12-08T14:01:46;5.40;99.90
28863;DHT22;15994;51.796;13.006;2022-12-08T14:04:19;5.40;99.90
28863;DHT22;15994;51.796;13.006;2022-12-08T14:06:51;5.40;99.90
28863;DHT22;15994;51.796;13.006;2022-12-08T14:09:23;5.40;99.90
28863;DHT22;15994;51.796;13.006;2022-12-08T14:12:22;5.40;99.90
28863;DHT22;15994;51.796;13.006;2022-12-08T14:15:02;5.40;99.90
28863;DHT22;15994;51.796;13.006;2022-12-08T14:17:30;5.40;99.90
28863;DHT22;15994;51.796;13.006;2022-12-08T14:20:00;5.30;99.90
28863;DHT22;15994;51.796;13.006;2022-12-08T14:22:35;5.30;99.90
28863;DHT22;15994;51.796;13.006;2022-12-08T14:25:03;5.20;99.90
28863;DHT22;15994;51.796;13.006;2022-12-08T14:27:35;5.10;99.90
28863;DHT22;15994;51.796;13.006;2022-12-08T14:32:48;5.20;99.90
28863;DHT22;15994;51.796;13.006;2022-12-08T14:35:24;5.20;99.90
28863;DHT22;15994;51.796;13.006;2022-12-08T14:37:55;5.20;99.90
28863;DHT22;15994;51.796;13.006;2022-12-08T14:40:32;5.20;99.90
28863;DHT22;15994;51.796;13.006;2022-12-08T14:48:31;4.80;99.90
28863;DHT22;15994;51.796;13.006;2022-12-08T14:54:13;3.70;99.90
28863;DHT22;15994;51.796;13.006;2022-12-08T14:56:54;3.20;99.90
28863;DHT22;15994;51.796;13.006;2022-12-08T14:59:27;3.10;99.90
28863;DHT22;15994;51.796;13.006;2022-12-08T15:04:46;2.60;99.90
28863;DHT22;15994;51.796;13.006;2022-12-08T15:07:16;2.80;99.90
28863;DHT22;15994;51.796;13.006;2022-12-08T15:09:45;2.80;99.90
28863;DHT22;15994;51.796;13.006;2022-12-08T15:14:42;2.60;99.90
28863;DHT22;15994;51.796;13.006;2022-12-08T15:19:58;2.60;99.90
28863;DHT22;15994;51.796;13.006;2022-12-08T15:22:26;2.50;99.90
28863;DHT22;15994;51.796;13.006;2022-12-08T15:24:54;2.60;99.90
28863;DHT22;15994;51.796;13.006;2022-12-08T15:27:23;2.60;99.90
28863;DHT22;15994;51.796;13.006;2022-12-08T15:34:46;2.70;99.90
28863;DHT22;15994;51.796;13.006;2022-12-08T15:37:31;2.70;99.90
28863;DHT22;15994;51.796;13.006;2022-12-08T15:39:58;2.60;99.90
28863;DHT22;15994;51.796;13.006;2022-12-08T15:42:24;2.60;99.90
28863;DHT22;15994;51.796;13.006;2022-12-08T15:44:51;2.60;99.90
28863;DHT22;15994;51.796;13.006;2022-12-08T15:47:22;2.70;99.90
28863;DHT22;15994;51.796;13.006;2022-12-08T15:49:50;2.70;99.90
28863;DHT22;15994;51.796;13.006;2022-12-08T15:52:19;2.60;99.90
28863;DHT22;15994;51.796;13.006;2022-12-08T15:54:46;2.60;99.90
28863;DHT22;15994;51.796;13.006;2022-12-08T15:57:23;2.60;99.90
28863;DHT22;15994;51.796;13.006;2022-12-08T15:59:51;2.70;99.90
28863;DHT22;15994;51.796;13.006;2022-12-08T16:02:19;2.60;99.90
28863;DHT22;15994;51.796;13.006;2022-12-08T16:04:47;2.60;99.90
28863;DHT22;15994;51.796;13.006;2022-12-08T16:07:28;2.60;99.90
28863;DHT22;15994;51.796;13.006;2022-12-08T16:09:55;2.60;99.90
28863;DHT22;15994;51.796;13.006;2022-12-08T16:12:24;2.60;99.90
28863;DHT22;15994;51.796;13.006;2022-12-08T16:15:10;2.60;99.90
28863;DHT22;15994;51.796;13.006;2022-12-08T16:17:38;2.60;99.90
28863;DHT22;15994;51.796;13.006;2022-12-08T16:20:12;2.60;99.90
28863;DHT22;15994;51.796;13.006;2022-12-08T16:22:41;2.80;99.90
28863;DHT22;15994;51.796;13.006;2022-12-08T16:25:09;2.80;99.90
28863;DHT22;15994;51.796;13.006;2022-12-08T16:27:38;2.80;99.90
28863;DHT22;15994;51.796;13.006;2022-12-08T16:30:07;2.80;99.90
28863;DHT22;15994;51.796;13.006;2022-12-08T16:32:36;2.80;99.90
28863;DHT22;15994;51.796;13.006;2022-12-08T16:35:03;2.80;99.90
28863;DHT22;15994;51.796;13.006;2022-12-08T16:37:30;2.80;99.90
28863;DHT22;15994;51.796;13.006;2022-12-08T16:39:57;2.80;99.90
28863;DHT22;15994;51.796;13.006;2022-12-08T16:42:32;2.90;99.90
28863;DHT22;15994;51.796;13.006;2022-12-08T16:47:36;2.80;99.90
28863;DHT22;15994;51.796;13.006;2022-12-08T16:50:09;3.00;99.90
28863;DHT22;15994;51.796;13.006;2022-12-08T16:52:36;2.90;99.90
28863;DHT22;15994;51.796;13.006;2022-12-08T16:55:08;2.90;99.90
28863;DHT22;15994;51.796;13.006;2022-12-08T16:57:35;2.90;99.90
28863;DHT22;15994;51.796;13.006;2022-12-08T17:00:03;3.00;99.90
28863;DHT22;15994;51.796;13.006;2022-12-08T17:02:30;3.00;99.90
28863;DHT22;15994;51.796;13.006;2022-12-08T17:04:56;3.00;99.90
28863;DHT22;15994;51.796;13.006;2022-12-08T17:07:23;2.90;99.90
28863;DHT22;15994;51.796;13.006;2022-12-08T17:09:50;3.00;99.90
28863;DHT22;15994;51.796;13.006;2022-12-08T17:12:17;2.90;99.90
28863;DHT22;15994;51.796;13.006;2022-12-08T17:14:44;3.00;99.90
28863;DHT22;15994;51.796;13.006;2022-12-08T17:17:10;3.00;99.90
28863;DHT22;15994;51.796;13.006;2022-12-08T17:19:37;2.90;99.90
28863;DHT22;15994;51.796;13.006;2022-12-08T17:22:04;3.00;99.90
28863;DHT22;15994;51.796;13.006;2022-12-08T17:24:30;3.00;99.90
28863;DHT22;15994;51.796;13.006;2022-12-08T17:26:57;3.00;99.90
28863;DHT22;15994;51.796;13.006;2022-12-08T17:29:29;2.90;99.90
28863;DHT22;15994;51.796;13.006;2022-12-08T17:31:56;2.90;99.90
28863;DHT22;15994;51.796;13.006;2022-12-08T17:34:23;2.80;99.90
28863;DHT22;15994;51.796;13.006;2022-12-08T17:36:50;2.80;99.90
28863;DHT22;15994;51.796;13.006;2022-12-08T17:39:17;2.70;99.90
28863;DHT22;15994;51.796;13.006;2022-12-08T17:41:44;2.90;99.90
28863;DHT22;15994;51.796;13.006;2022-12-08T17:44:13;2.80;99.90